createdAt,value
2017-12-27T00:00:56.446Z,2.25
2017-12-27T00:03:30.468Z,2.37
2017-12-27T00:06:04.304Z,3.03
2017-12-27T00:08:38.400Z,2.95
2017-12-27T00:14:13.520Z,2.28
2017-12-27T00:16:47.294Z,2.20
2017-12-27T00:19:21.172Z,2.37
2017-12-27T00:21:55.283Z,2.97
2017-12-27T00:24:29.219Z,2.50
2017-12-27T00:27:03.134Z,2.60
2017-12-27T00:29:37.018Z,2.37
2017-12-27T00:32:04.823Z,3.40
2017-12-27T00:34:33.168Z,3.55
2017-12-27T00:37:01.562Z,3.58
2017-12-27T00:39:29.927Z,3.65
2017-12-27T00:41:58.296Z,3.65
2017-12-27T00:44:26.714Z,4.07
2017-12-27T00:46:55.144Z,3.65
2017-12-27T00:49:23.508Z,4.00
2017-12-27T00:51:51.920Z,4.45
2017-12-27T00:54:20.275Z,5.05
2017-12-27T00:59:23.193Z,4.82
2017-12-27T01:01:51.543Z,4.97
2017-12-27T01:04:19.914Z,4.70
2017-12-27T01:06:48.275Z,4.70
2017-12-27T01:09:16.690Z,5.20
2017-12-27T01:11:45.027Z,4.55
2017-12-27T01:14:13.368Z,5.15
2017-12-27T01:16:41.754Z,4.72
2017-12-27T01:19:10.122Z,4.82
2017-12-27T01:21:38.631Z,5.40
2017-12-27T01:24:07.087Z,5.18
2017-12-27T01:26:35.443Z,5.07
2017-12-27T01:29:03.791Z,5.55
2017-12-27T01:31:32.145Z,5.12
2017-12-27T01:34:00.553Z,5.60
2017-12-27T01:36:28.888Z,5.50
2017-12-27T01:38:57.239Z,5.12
2017-12-27T01:41:25.597Z,5.10
2017-12-27T01:43:53.971Z,5.20
2017-12-27T01:46:22.341Z,4.95
2017-12-27T01:48:50.696Z,5.50
2017-12-27T01:51:19.052Z,5.60
2017-12-27T01:53:47.415Z,5.30
2017-12-27T01:56:15.774Z,6.78
2017-12-27T01:58:44.160Z,7.07
2017-12-27T02:01:12.507Z,7.45
2017-12-27T02:03:40.938Z,6.30
2017-12-27T02:06:09.292Z,6.57
2017-12-27T02:08:37.655Z,6.40
2017-12-27T02:11:06.031Z,6.62
2017-12-27T02:13:34.386Z,6.25
2017-12-27T02:16:02.771Z,7.05
2017-12-27T02:18:31.158Z,7.60
2017-12-27T02:20:59.542Z,6.50
2017-12-27T02:23:27.939Z,6.60
2017-12-27T02:25:56.303Z,5.95
2017-12-27T02:28:24.697Z,6.35
2017-12-27T02:30:53.088Z,6.18
2017-12-27T02:33:21.450Z,5.53
2017-12-27T02:35:49.891Z,4.97
2017-12-27T02:38:18.273Z,5.00
2017-12-27T02:43:20.413Z,4.18
2017-12-27T02:45:49.667Z,4.80
2017-12-27T02:48:18.176Z,4.90
2017-12-27T02:50:46.547Z,4.30
2017-12-27T02:53:14.910Z,4.47
2017-12-27T02:55:43.249Z,4.53
2017-12-27T02:58:11.635Z,4.60
2017-12-27T03:00:40.031Z,4.90
2017-12-27T03:03:08.397Z,4.60
2017-12-27T03:05:36.750Z,5.35
2017-12-27T03:08:05.136Z,5.00
2017-12-27T03:10:33.548Z,5.00
2017-12-27T03:13:01.891Z,5.45
2017-12-27T03:15:30.259Z,4.30
2017-12-27T03:17:58.621Z,4.60
2017-12-27T03:20:26.956Z,3.65
2017-12-27T03:22:55.394Z,3.95
2017-12-27T03:25:23.743Z,4.40
2017-12-27T03:27:52.082Z,4.70
2017-12-27T03:30:20.443Z,5.25
2017-12-27T03:32:48.794Z,4.90
2017-12-27T03:35:17.189Z,5.45
2017-12-27T03:37:45.541Z,4.55
2017-12-27T03:40:13.875Z,4.30
2017-12-27T03:42:42.230Z,4.25
2017-12-27T03:45:10.612Z,4.43
2017-12-27T03:47:38.990Z,4.53
2017-12-27T03:50:07.467Z,4.53
2017-12-27T03:52:35.805Z,4.47
2017-12-27T03:55:04.226Z,5.20
2017-12-27T03:57:32.600Z,5.65
2017-12-27T04:00:00.976Z,4.35
2017-12-27T04:02:29.318Z,5.05
2017-12-27T04:04:57.692Z,4.40
2017-12-27T04:07:26.048Z,4.07
2017-12-27T04:09:54.388Z,4.62
2017-12-27T04:12:22.751Z,4.45
2017-12-27T04:14:51.098Z,4.62
2017-12-27T04:17:19.461Z,3.80
2017-12-27T04:19:47.811Z,3.55
2017-12-27T04:22:16.147Z,4.00
2017-12-27T04:24:44.515Z,3.22
2017-12-27T04:27:12.876Z,3.70
2017-12-27T04:29:41.257Z,3.80
2017-12-27T04:32:09.639Z,3.42
2017-12-27T04:34:37.994Z,3.50
2017-12-27T04:37:06.438Z,3.25
2017-12-27T04:39:34.774Z,3.80
2017-12-27T04:42:03.131Z,4.03
2017-12-27T04:44:31.470Z,4.37
2017-12-27T04:46:59.815Z,4.00
2017-12-27T04:49:28.177Z,3.97
2017-12-27T04:51:56.529Z,3.80
2017-12-27T04:54:24.872Z,2.65
2017-12-27T04:56:53.248Z,2.70
2017-12-27T04:59:21.694Z,2.80
2017-12-27T05:01:50.042Z,2.80
2017-12-27T05:04:18.380Z,2.30
2017-12-27T05:06:46.755Z,2.40
2017-12-27T05:09:15.312Z,2.20
2017-12-27T05:11:43.709Z,2.37
2017-12-27T05:14:12.047Z,2.10
2017-12-27T05:16:40.398Z,2.60
2017-12-27T05:19:08.766Z,2.30
2017-12-27T05:21:37.127Z,2.33
2017-12-27T05:24:05.496Z,2.45
2017-12-27T05:26:33.927Z,2.45
2017-12-27T05:29:02.290Z,2.03
2017-12-27T05:31:30.635Z,2.20
2017-12-27T05:33:59.030Z,1.87
2017-12-27T05:36:27.366Z,2.65
2017-12-27T05:38:55.746Z,2.60
2017-12-27T05:41:24.115Z,2.60
2017-12-27T05:43:52.468Z,2.50
2017-12-27T05:46:20.839Z,2.60
2017-12-27T05:48:49.220Z,2.75
2017-12-27T05:51:17.614Z,2.33
2017-12-27T05:53:45.983Z,2.67
2017-12-27T05:56:14.375Z,2.20
2017-12-27T05:58:43.096Z,2.70
2017-12-27T06:01:11.484Z,2.53
2017-12-27T06:03:39.851Z,2.53
2017-12-27T06:06:08.187Z,2.65
2017-12-27T06:08:36.622Z,3.55
2017-12-27T06:11:04.967Z,3.33
2017-12-27T06:13:33.371Z,2.95
2017-12-27T06:16:01.779Z,3.60
2017-12-27T06:18:30.111Z,2.33
2017-12-27T06:20:58.514Z,2.67
2017-12-27T06:23:26.848Z,2.90
2017-12-27T06:25:55.204Z,2.85
2017-12-27T06:28:23.578Z,2.58
2017-12-27T06:30:51.971Z,2.60
2017-12-27T06:33:20.354Z,2.80
2017-12-27T06:35:48.756Z,4.07
2017-12-27T06:38:17.110Z,2.50
2017-12-27T06:40:45.499Z,2.22
2017-12-27T06:43:14.058Z,2.60
2017-12-27T06:45:42.397Z,2.62
2017-12-27T06:48:10.808Z,2.50
2017-12-27T06:50:39.211Z,2.70
2017-12-27T06:53:07.566Z,2.30
2017-12-27T06:55:35.903Z,2.00
2017-12-27T06:58:04.297Z,2.45
2017-12-27T07:00:32.637Z,2.33
2017-12-27T07:03:01.009Z,2.12
2017-12-27T07:05:29.364Z,2.37
2017-12-27T07:07:57.739Z,2.53
2017-12-27T07:10:26.155Z,2.60
2017-12-27T07:12:54.502Z,2.10
2017-12-27T07:15:22.859Z,2.00
2017-12-27T07:17:51.201Z,2.08
2017-12-27T07:20:19.590Z,1.48
2017-12-27T07:22:47.989Z,1.90
2017-12-27T07:25:16.378Z,1.83
2017-12-27T07:27:44.770Z,1.60
2017-12-27T07:30:13.144Z,1.60
2017-12-27T07:32:41.570Z,1.55
2017-12-27T07:35:09.915Z,1.40
2017-12-27T07:37:38.274Z,1.10
2017-12-27T07:40:06.628Z,1.73
2017-12-27T07:42:35.011Z,1.50
2017-12-27T07:45:03.444Z,0.73
2017-12-27T07:47:31.791Z,0.82
2017-12-27T07:50:00.151Z,1.20
2017-12-27T07:52:28.521Z,0.77
2017-12-27T07:57:20.081Z,1.05
2017-12-27T07:59:48.490Z,0.60
2017-12-27T08:02:16.902Z,0.90
2017-12-27T08:04:45.272Z,0.95
2017-12-27T08:07:13.631Z,1.10
2017-12-27T08:09:41.989Z,0.80
2017-12-27T08:12:10.451Z,0.82
2017-12-27T08:14:38.801Z,1.15
2017-12-27T08:17:07.171Z,0.90
2017-12-27T08:19:35.551Z,1.00
2017-12-27T08:22:04.010Z,0.85
2017-12-27T08:24:32.407Z,0.88
2017-12-27T08:27:00.774Z,1.20
2017-12-27T08:29:29.108Z,0.75
2017-12-27T08:31:57.481Z,0.90
2017-12-27T08:34:25.848Z,0.98
2017-12-27T08:36:54.250Z,1.05
2017-12-27T08:39:22.600Z,0.73
2017-12-27T08:41:50.950Z,0.80
2017-12-27T08:44:19.296Z,0.73
2017-12-27T08:46:47.634Z,0.62
2017-12-27T08:49:16.038Z,0.88
2017-12-27T08:51:44.432Z,0.80
2017-12-27T08:54:12.795Z,0.95
2017-12-27T08:56:41.199Z,0.65
2017-12-27T08:59:09.561Z,0.90
2017-12-27T09:01:38.053Z,0.93
2017-12-27T09:04:06.465Z,0.65
2017-12-27T09:06:34.816Z,0.62
2017-12-27T09:09:03.201Z,0.73
2017-12-27T09:11:31.616Z,0.90
2017-12-27T09:13:59.981Z,0.90
2017-12-27T09:16:28.347Z,0.80
2017-12-27T09:18:56.703Z,0.90
2017-12-27T09:21:25.087Z,0.80
2017-12-27T09:23:53.554Z,0.90
2017-12-27T09:26:21.902Z,1.00
2017-12-27T09:28:50.436Z,1.40
2017-12-27T09:31:18.806Z,1.58
2017-12-27T09:33:47.239Z,1.20
2017-12-27T09:36:15.601Z,1.20
2017-12-27T09:38:43.958Z,1.52
2017-12-27T09:41:12.322Z,1.10
2017-12-27T09:43:40.726Z,1.47
2017-12-27T09:46:09.125Z,1.48
2017-12-27T09:48:38.334Z,1.65
2017-12-27T09:51:06.716Z,1.00
2017-12-27T09:53:35.116Z,1.20
2017-12-27T09:56:03.561Z,1.40
2017-12-27T09:58:31.912Z,1.20
2017-12-27T10:01:00.326Z,1.10
2017-12-27T10:03:28.702Z,1.25
2017-12-27T10:05:57.084Z,1.00
2017-12-27T10:08:25.530Z,1.37
2017-12-27T10:10:53.947Z,1.30
2017-12-27T10:13:22.374Z,1.10
2017-12-27T10:15:50.764Z,1.42
2017-12-27T10:18:19.247Z,1.50
2017-12-27T10:20:47.652Z,1.40
2017-12-27T10:23:16.078Z,1.27
2017-12-27T10:25:44.461Z,1.27
2017-12-27T10:28:12.819Z,1.07
2017-12-27T10:30:41.181Z,1.37
2017-12-27T10:33:09.648Z,1.13
2017-12-27T10:35:38.011Z,1.07
2017-12-27T10:38:06.404Z,0.83
2017-12-27T10:40:34.788Z,0.90
2017-12-27T10:43:03.184Z,1.10
2017-12-27T10:45:31.534Z,1.00
2017-12-27T10:47:59.903Z,0.75
2017-12-27T10:50:28.331Z,0.70
2017-12-27T10:52:56.686Z,0.80
2017-12-27T10:55:25.091Z,0.70
2017-12-27T10:57:53.448Z,0.80
2017-12-27T11:00:21.770Z,0.60
2017-12-27T11:02:50.247Z,0.70
2017-12-27T11:05:18.603Z,0.80
2017-12-27T11:07:46.969Z,0.60
2017-12-27T11:10:15.322Z,0.50
2017-12-27T11:12:44.049Z,0.60
2017-12-27T11:15:12.450Z,0.70
2017-12-27T11:17:40.798Z,0.70
2017-12-27T11:20:09.188Z,0.50
2017-12-27T11:22:37.518Z,0.50
2017-12-27T11:25:05.907Z,0.50
2017-12-27T11:27:34.247Z,0.80
2017-12-27T11:30:02.647Z,0.70
2017-12-27T11:32:30.996Z,0.70
2017-12-27T11:34:59.384Z,0.50
2017-12-27T11:37:27.729Z,0.60
2017-12-27T11:39:56.070Z,0.70
2017-12-27T11:42:24.464Z,0.80
2017-12-27T11:44:52.806Z,0.60
2017-12-27T11:47:21.172Z,0.90
2017-12-27T11:49:49.571Z,0.87
2017-12-27T11:52:17.946Z,0.80
2017-12-27T11:54:46.359Z,0.50
2017-12-27T11:57:14.711Z,1.13
2017-12-27T11:59:43.082Z,0.80
2017-12-27T12:02:11.438Z,0.80
2017-12-27T12:04:39.766Z,0.70
2017-12-27T12:07:08.139Z,1.00
2017-12-27T12:09:36.472Z,0.70
2017-12-27T12:12:04.861Z,0.60
2017-12-27T12:14:33.204Z,0.60
2017-12-27T12:17:01.539Z,0.73
2017-12-27T12:19:30.032Z,0.50
2017-12-27T12:21:58.365Z,0.80
2017-12-27T12:24:26.739Z,0.77
2017-12-27T12:26:55.083Z,0.90
2017-12-27T12:29:23.434Z,0.90
2017-12-27T12:31:51.783Z,0.80
2017-12-27T12:34:20.111Z,0.70
2017-12-27T12:36:48.475Z,0.70
2017-12-27T12:39:16.830Z,0.90
2017-12-27T12:41:45.236Z,1.00
2017-12-27T12:44:13.587Z,0.90
2017-12-27T12:46:41.922Z,0.70
2017-12-27T12:49:10.262Z,0.90
2017-12-27T12:51:38.613Z,0.70
2017-12-27T12:54:06.995Z,1.00
2017-12-27T12:56:35.358Z,0.90
2017-12-27T12:59:03.699Z,0.70
2017-12-27T13:01:32.047Z,0.90
2017-12-27T13:04:00.398Z,1.00
2017-12-27T13:06:28.762Z,0.90
2017-12-27T13:08:57.142Z,1.00
2017-12-27T13:11:25.489Z,0.70
2017-12-27T13:13:53.821Z,0.80
2017-12-27T13:16:22.165Z,0.90
2017-12-27T13:18:50.586Z,1.20
2017-12-27T13:21:18.936Z,1.10
2017-12-27T13:23:47.267Z,0.90
2017-12-27T13:26:15.620Z,1.40
2017-12-27T13:28:43.964Z,0.80
2017-12-27T13:31:12.340Z,0.77
2017-12-27T13:33:40.687Z,1.10
2017-12-27T13:36:09.063Z,0.70
2017-12-27T13:38:38.328Z,1.10
2017-12-27T13:41:06.709Z,0.73
2017-12-27T13:43:35.080Z,0.60
2017-12-27T13:46:03.435Z,0.80
2017-12-27T13:48:31.771Z,0.50
2017-12-27T13:51:00.126Z,1.20
2017-12-27T13:53:28.574Z,0.90
2017-12-27T13:55:56.978Z,1.20
2017-12-27T13:58:25.361Z,0.80
2017-12-27T14:00:53.697Z,1.30
2017-12-27T14:03:22.092Z,0.83
2017-12-27T14:05:50.502Z,0.80
2017-12-27T14:08:18.845Z,1.00
2017-12-27T14:10:47.201Z,1.10
2017-12-27T14:13:15.591Z,1.00
2017-12-27T14:15:45.127Z,0.90
2017-12-27T14:18:13.504Z,1.10
2017-12-27T14:20:41.892Z,0.90
2017-12-27T14:23:10.231Z,1.03
2017-12-27T14:25:38.573Z,1.00
2017-12-27T14:28:06.959Z,1.20
2017-12-27T14:30:35.322Z,1.37
2017-12-27T14:33:03.678Z,1.13
2017-12-27T14:35:32.015Z,1.20
2017-12-27T14:38:00.372Z,1.30
2017-12-27T14:49:09.512Z,1.63
2017-12-27T14:51:37.892Z,1.43
2017-12-27T14:54:07.148Z,1.60
2017-12-27T14:56:35.506Z,1.97
2017-12-27T14:59:03.856Z,1.90
2017-12-27T15:01:32.239Z,2.10
2017-12-27T15:04:00.594Z,2.13
2017-12-27T15:11:06.738Z,2.70
2017-12-27T15:16:35.444Z,2.47
2017-12-27T15:19:03.781Z,2.40
2017-12-27T15:21:32.184Z,2.27
2017-12-27T15:24:00.539Z,2.30
2017-12-27T15:26:28.884Z,2.43
2017-12-27T15:28:57.276Z,2.80
2017-12-27T15:31:25.616Z,2.60
2017-12-27T15:33:53.973Z,2.40
2017-12-27T15:36:22.342Z,4.77
2017-12-27T15:38:50.676Z,4.57
2017-12-27T15:41:19.124Z,1.83
2017-12-27T15:43:47.480Z,2.03
2017-12-27T15:46:15.829Z,2.07
2017-12-27T15:48:44.205Z,2.10
2017-12-27T15:51:12.574Z,1.70
2017-12-27T15:53:40.975Z,2.10
2017-12-27T15:56:09.323Z,2.17
2017-12-27T15:58:37.674Z,1.90
2017-12-27T16:01:06.019Z,3.30
2017-12-27T16:03:34.357Z,2.40
2017-12-27T16:06:02.779Z,1.97
2017-12-27T16:08:31.164Z,2.40
2017-12-27T16:10:59.516Z,2.23
2017-12-27T16:13:27.856Z,1.97
2017-12-27T16:15:56.284Z,1.97
2017-12-27T16:18:24.652Z,2.40
2017-12-27T16:20:52.991Z,3.10
2017-12-27T16:23:21.335Z,2.63
2017-12-27T16:25:49.680Z,2.83
2017-12-27T16:28:18.082Z,3.00
2017-12-27T16:30:46.589Z,2.50
2017-12-27T16:33:15.053Z,2.90
2017-12-27T16:35:43.397Z,2.40
2017-12-27T16:38:11.749Z,2.40
2017-12-27T16:40:40.127Z,3.57
2017-12-27T16:43:08.462Z,2.80
2017-12-27T16:45:36.846Z,2.90
2017-12-27T16:48:05.187Z,2.53
2017-12-27T16:50:33.527Z,2.57
2017-12-27T16:53:01.929Z,2.67
2017-12-27T16:55:30.280Z,3.57
2017-12-27T16:57:58.634Z,2.77
2017-12-27T17:00:27.015Z,3.00
2017-12-27T17:02:55.360Z,3.43
2017-12-27T17:05:23.718Z,3.80
2017-12-27T17:07:52.060Z,3.73
2017-12-27T17:10:20.393Z,3.53
2017-12-27T17:12:48.761Z,3.97
2017-12-27T17:15:17.099Z,4.00
2017-12-27T17:17:45.488Z,4.80
2017-12-27T17:20:13.865Z,3.47
2017-12-27T17:22:42.300Z,4.10
2017-12-27T17:25:10.649Z,3.17
2017-12-27T17:27:39.016Z,3.60
2017-12-27T17:30:07.396Z,3.00
2017-12-27T17:32:35.719Z,3.73
2017-12-27T17:35:05.995Z,3.93
2017-12-27T17:37:34.368Z,3.13
2017-12-27T17:40:02.745Z,3.63
2017-12-27T17:42:31.087Z,3.17
2017-12-27T17:44:59.437Z,3.37
2017-12-27T17:47:27.792Z,3.23
2017-12-27T17:49:56.138Z,3.40
2017-12-27T17:52:24.544Z,3.47
2017-12-27T17:54:52.903Z,3.10
2017-12-27T17:57:22.167Z,3.20
2017-12-27T17:59:50.564Z,2.80
2017-12-27T18:02:18.901Z,2.80
2017-12-27T18:04:47.336Z,3.23
2017-12-27T18:07:15.720Z,3.40
2017-12-27T18:09:44.092Z,2.63
2017-12-27T18:12:12.423Z,2.80
2017-12-27T18:14:40.776Z,3.13
2017-12-27T18:17:09.142Z,2.70
2017-12-27T18:19:37.485Z,3.13
2017-12-27T18:22:05.941Z,2.80
2017-12-27T18:24:34.292Z,3.67
2017-12-27T18:27:02.787Z,3.00
2017-12-27T18:29:31.165Z,2.60
2017-12-27T18:31:59.518Z,9.67
2017-12-27T18:34:29.828Z,2.40
2017-12-27T18:36:59.147Z,2.57
2017-12-27T18:39:27.499Z,2.70
2017-12-27T18:41:55.841Z,3.00
2017-12-27T18:44:25.121Z,2.83
2017-12-27T18:46:53.551Z,2.30
2017-12-27T18:49:34.606Z,2.20
2017-12-27T18:52:03.044Z,2.43
2017-12-27T18:54:31.397Z,2.67
2017-12-27T18:57:00.651Z,3.00
2017-12-27T18:59:29.007Z,2.20
2017-12-27T19:01:57.365Z,2.30
2017-12-27T19:04:25.759Z,2.90
2017-12-27T19:06:54.124Z,2.73
2017-12-27T19:09:22.482Z,2.90
2017-12-27T19:11:50.821Z,3.20
2017-12-27T19:14:19.204Z,3.20
2017-12-27T19:16:47.547Z,3.10
2017-12-27T19:19:15.941Z,3.17
2017-12-27T19:24:55.155Z,3.13
2017-12-27T19:27:25.505Z,3.10
2017-12-27T19:29:53.872Z,2.47
2017-12-27T19:32:22.244Z,2.73
2017-12-27T19:34:50.619Z,2.40
2017-12-27T19:37:19.046Z,4.27
2017-12-27T19:39:47.406Z,2.70
2017-12-27T19:42:15.775Z,2.20
2017-12-27T19:44:44.148Z,1.93
2017-12-27T19:47:12.507Z,2.53
2017-12-27T19:49:40.940Z,2.30
2017-12-27T19:52:09.308Z,2.67
2017-12-27T19:54:38.660Z,1.87
2017-12-27T19:57:07.016Z,2.57
2017-12-27T19:59:35.390Z,3.33
2017-12-27T20:02:03.750Z,3.17
2017-12-27T20:04:32.115Z,4.00
2017-12-27T20:07:00.523Z,4.10
2017-12-27T20:09:28.872Z,3.50
2017-12-27T20:11:57.290Z,4.40
2017-12-27T20:14:25.680Z,4.30
2017-12-27T20:16:54.071Z,5.32
2017-12-27T20:19:22.449Z,4.10
2017-12-27T20:21:50.874Z,3.58
2017-12-27T20:24:19.376Z,3.47
2017-12-27T20:26:47.777Z,3.92
2017-12-27T20:29:16.214Z,3.67
2017-12-27T20:31:44.572Z,3.33
2017-12-27T20:34:12.939Z,3.55
2017-12-27T20:36:41.341Z,3.50
2017-12-27T20:39:09.723Z,2.55
2017-12-27T20:41:38.171Z,2.20
2017-12-27T20:44:07.480Z,3.35
2017-12-27T20:46:35.845Z,3.10
2017-12-27T20:49:05.228Z,4.07
2017-12-27T20:51:33.579Z,3.15
2017-12-27T20:54:01.956Z,3.28
2017-12-27T20:56:30.309Z,3.10
2017-12-27T20:58:58.669Z,3.08
2017-12-27T21:01:27.079Z,2.80
2017-12-27T21:03:55.443Z,2.40
2017-12-27T21:06:23.812Z,2.22
2017-12-27T21:08:52.363Z,2.10
2017-12-27T21:11:20.766Z,2.42
2017-12-27T21:13:49.160Z,2.30
2017-12-27T21:16:17.516Z,2.60
2017-12-27T21:18:45.903Z,2.35
2017-12-27T21:21:14.275Z,2.22
2017-12-27T21:23:42.775Z,2.53
2017-12-27T21:26:11.320Z,4.20
2017-12-27T21:28:39.861Z,2.25
2017-12-27T21:31:08.283Z,2.30
2017-12-27T21:33:36.728Z,2.30
2017-12-27T21:36:05.084Z,2.40
2017-12-27T21:38:33.476Z,2.47
2017-12-27T21:41:01.844Z,2.10
2017-12-27T21:43:30.228Z,3.17
2017-12-27T21:45:58.592Z,2.20
2017-12-27T21:48:32.460Z,3.20
2017-12-27T21:51:00.834Z,3.10
2017-12-27T21:53:29.188Z,4.50
2017-12-27T21:55:57.574Z,2.50
2017-12-27T21:58:31.532Z,2.50
2017-12-27T22:01:05.467Z,2.78
2017-12-27T22:03:33.875Z,2.25
2017-12-27T22:06:02.268Z,2.40
2017-12-27T22:08:30.644Z,2.40
2017-12-27T22:10:59.012Z,2.20
2017-12-27T22:13:27.735Z,2.10
2017-12-27T22:15:56.288Z,2.40
2017-12-27T22:18:24.667Z,2.00
2017-12-27T22:20:58.524Z,2.07
2017-12-27T22:23:26.953Z,2.58
2017-12-27T22:25:55.473Z,1.75
2017-12-27T22:28:23.836Z,1.60
2017-12-27T22:30:52.285Z,2.10
2017-12-27T22:33:20.640Z,1.83
2017-12-27T22:35:49.039Z,2.27
2017-12-27T22:38:18.596Z,1.90
2017-12-27T22:40:46.945Z,1.90
2017-12-27T22:43:15.311Z,1.60
2017-12-27T22:45:43.689Z,2.23
2017-12-27T22:48:12.068Z,1.60
2017-12-27T22:50:40.487Z,2.20
2017-12-27T22:53:08.878Z,2.80
2017-12-27T22:55:37.232Z,1.83
2017-12-27T22:58:05.575Z,2.00
2017-12-27T23:00:33.941Z,2.20
2017-12-27T23:03:02.327Z,2.33
2017-12-27T23:05:30.794Z,2.20
2017-12-27T23:07:59.237Z,2.00
2017-12-27T23:10:27.857Z,2.33
2017-12-27T23:12:56.247Z,2.30
2017-12-27T23:15:24.628Z,2.83
2017-12-27T23:17:53.033Z,2.90
2017-12-27T23:20:21.449Z,3.57
2017-12-27T23:22:49.817Z,2.73
2017-12-27T23:25:18.199Z,2.70
2017-12-27T23:27:46.585Z,3.47
2017-12-27T23:30:14.942Z,3.10
2017-12-27T23:32:43.290Z,2.90
2017-12-27T23:35:11.658Z,3.40
2017-12-27T23:37:39.996Z,4.70
2017-12-27T23:40:08.355Z,4.53
2017-12-27T23:42:36.737Z,4.50
2017-12-27T23:45:05.098Z,3.40
2017-12-27T23:47:33.441Z,3.60
2017-12-27T23:50:01.804Z,3.67
2017-12-27T23:52:30.186Z,3.37
2017-12-27T23:54:58.599Z,3.53
2017-12-27T23:57:26.996Z,4.27
2017-12-27T23:59:55.413Z,4.63
